createdAt,value
2018-06-28T00:00:10.149Z,1.80
2018-06-28T00:03:14.424Z,2.13
2018-06-28T00:06:18.710Z,2.10
2018-06-28T00:09:23.208Z,2.00
2018-06-28T00:12:27.559Z,2.13
2018-06-28T00:15:31.894Z,2.40
2018-06-28T00:18:36.238Z,1.90
2018-06-28T00:21:41.110Z,1.90
2018-06-28T00:24:45.566Z,2.07
2018-06-28T00:27:50.234Z,2.67
2018-06-28T00:30:54.739Z,2.30
2018-06-28T00:34:02.213Z,1.83
2018-06-28T00:37:06.515Z,2.57
2018-06-28T00:40:10.814Z,2.65
2018-06-28T00:43:16.246Z,1.97
2018-06-28T00:46:20.721Z,2.23
2018-06-28T00:49:25.342Z,1.97
2018-06-28T00:52:29.956Z,1.77
2018-06-28T00:55:34.354Z,2.63
2018-06-28T00:58:38.676Z,1.95
2018-06-28T01:01:42.739Z,2.07
2018-06-28T01:04:47.005Z,2.60
2018-06-28T01:07:51.365Z,1.93
2018-06-28T01:10:55.632Z,1.97
2018-06-28T01:14:00.122Z,2.07
2018-06-28T01:17:04.469Z,2.00
2018-06-28T01:20:09.278Z,2.37
2018-06-28T01:23:13.577Z,1.77
2018-06-28T01:26:17.867Z,1.80
2018-06-28T01:29:22.163Z,2.40
2018-06-28T01:32:26.474Z,2.20
2018-06-28T01:35:31.030Z,1.90
2018-06-28T01:38:35.585Z,2.50
2018-06-28T01:41:56.844Z,1.83
2018-06-28T01:45:01.131Z,1.87
2018-06-28T01:48:05.529Z,1.97
2018-06-28T01:51:09.955Z,2.30
2018-06-28T01:54:15.303Z,2.17
2018-06-28T01:57:19.585Z,2.50
2018-06-28T02:00:23.877Z,2.00
2018-06-28T02:03:28.530Z,2.30
2018-06-28T02:06:32.942Z,2.30
2018-06-28T02:09:37.521Z,2.40
2018-06-28T02:12:41.941Z,2.70
2018-06-28T02:15:46.225Z,2.73
2018-06-28T02:18:50.503Z,2.43
2018-06-28T02:21:54.768Z,2.80
2018-06-28T02:24:59.165Z,2.33
2018-06-28T02:28:03.482Z,2.43
2018-06-28T02:31:07.918Z,2.23
2018-06-28T02:34:13.185Z,3.03
2018-06-28T02:37:17.972Z,2.93
2018-06-28T02:40:22.274Z,2.60
2018-06-28T02:43:26.566Z,2.40
2018-06-28T02:46:30.890Z,2.57
2018-06-28T02:49:35.293Z,2.20
2018-06-28T02:52:39.843Z,2.20
2018-06-28T02:55:44.138Z,2.00
2018-06-28T02:58:48.546Z,2.83
2018-06-28T03:01:53.218Z,2.00
2018-06-28T03:04:57.498Z,2.90
2018-06-28T03:08:01.865Z,2.60
2018-06-28T03:11:06.145Z,2.67
2018-06-28T03:14:10.479Z,2.37
2018-06-28T03:17:17.745Z,1.67
2018-06-28T03:20:22.110Z,2.27
2018-06-28T03:23:26.403Z,2.20
2018-06-28T03:26:30.752Z,2.00
2018-06-28T03:29:35.738Z,2.10
2018-06-28T03:32:40.243Z,2.10
2018-06-28T03:35:44.509Z,1.90
2018-06-28T03:38:49.394Z,2.10
2018-06-28T03:41:53.682Z,2.10
2018-06-28T03:44:57.988Z,2.13
2018-06-28T03:48:02.810Z,2.33
2018-06-28T03:51:07.492Z,2.60
2018-06-28T03:54:12.113Z,2.60
2018-06-28T03:57:16.462Z,1.90
2018-06-28T04:00:20.821Z,2.70
2018-06-28T04:03:25.891Z,3.03
2018-06-28T04:06:30.336Z,2.70
2018-06-28T04:09:34.633Z,2.33
2018-06-28T04:12:39.530Z,2.10
2018-06-28T04:15:44.493Z,2.47
2018-06-28T04:18:49.046Z,2.87
2018-06-28T04:21:53.415Z,3.73
2018-06-28T04:25:01.367Z,3.67
2018-06-28T04:28:06.661Z,4.63
2018-06-28T04:31:11.005Z,4.87
2018-06-28T04:34:15.934Z,3.97
2018-06-28T04:37:20.449Z,3.80
2018-06-28T04:40:24.766Z,3.60
2018-06-28T04:43:29.704Z,3.07
2018-06-28T04:46:34.662Z,3.40
2018-06-28T04:49:39.285Z,4.00
2018-06-28T04:52:43.603Z,3.90
2018-06-28T04:55:47.902Z,3.93
2018-06-28T04:58:52.229Z,4.33
2018-06-28T05:01:56.481Z,4.40
2018-06-28T05:05:01.083Z,4.63
2018-06-28T05:08:05.414Z,3.70
2018-06-28T05:11:10.442Z,4.23
2018-06-28T05:14:15.159Z,4.27
2018-06-28T05:17:19.596Z,3.70
2018-06-28T05:20:25.091Z,4.37
2018-06-28T05:23:30.662Z,4.47
2018-06-28T05:26:35.424Z,4.10
2018-06-28T05:29:41.113Z,4.40
2018-06-28T05:32:45.550Z,4.57
2018-06-28T05:35:50.152Z,4.20
2018-06-28T05:38:56.221Z,4.60
2018-06-28T05:42:00.910Z,4.57
2018-06-28T05:45:06.499Z,5.13
2018-06-28T05:48:11.121Z,5.25
2018-06-28T05:51:15.874Z,5.00
2018-06-28T05:54:20.200Z,4.10
2018-06-28T05:57:25.653Z,4.53
2018-06-28T06:00:30.150Z,5.10
2018-06-28T06:03:39.742Z,4.63
2018-06-28T06:06:47.107Z,5.30
2018-06-28T06:09:51.479Z,5.37
2018-06-28T06:12:56.278Z,5.10
2018-06-28T06:16:00.606Z,5.43
2018-06-28T06:19:05.751Z,5.45
2018-06-28T06:22:10.105Z,5.57
2018-06-28T06:25:14.609Z,6.67
2018-06-28T06:28:19.062Z,6.03
2018-06-28T06:31:23.942Z,5.40
2018-06-28T06:34:29.211Z,5.50
2018-06-28T06:37:33.726Z,4.60
2018-06-28T06:40:38.160Z,5.03
2018-06-28T06:43:42.522Z,4.60
2018-06-28T06:46:46.805Z,5.60
2018-06-28T06:49:51.130Z,5.27
2018-06-28T06:52:56.550Z,5.50
2018-06-28T06:56:00.853Z,5.50
2018-06-28T06:59:05.396Z,4.63
2018-06-28T07:02:09.714Z,5.03
2018-06-28T07:05:13.997Z,5.83
2018-06-28T07:08:18.301Z,5.20
2018-06-28T07:11:22.683Z,5.50
2018-06-28T07:14:26.982Z,5.13
2018-06-28T07:17:31.286Z,4.93
2018-06-28T07:20:35.769Z,5.03
2018-06-28T07:23:40.093Z,5.47
2018-06-28T07:26:44.791Z,5.50
2018-06-28T07:29:49.171Z,6.27
2018-06-28T07:32:53.453Z,4.93
2018-06-28T07:35:57.807Z,6.03
2018-06-28T07:39:02.131Z,6.17
2018-06-28T07:42:07.879Z,5.00
2018-06-28T07:45:12.226Z,5.10
2018-06-28T07:48:16.753Z,5.23
2018-06-28T07:51:21.074Z,5.27
2018-06-28T07:54:26.370Z,4.83
2018-06-28T07:57:30.801Z,5.57
2018-06-28T08:00:35.101Z,5.00
2018-06-28T08:03:40.439Z,4.47
2018-06-28T08:06:45.751Z,5.77
2018-06-28T08:09:50.061Z,5.40
2018-06-28T08:12:54.379Z,6.80
2018-06-28T08:15:58.649Z,6.50
2018-06-28T08:19:03.127Z,6.80
2018-06-28T08:22:07.416Z,6.33
2018-06-28T08:25:12.954Z,6.20
2018-06-28T08:28:17.269Z,6.90
2018-06-28T08:31:21.769Z,7.37
2018-06-28T08:34:26.085Z,8.13
2018-06-28T08:37:31.439Z,7.57
2018-06-28T08:40:35.989Z,8.90
2018-06-28T08:43:40.346Z,8.30
2018-06-28T08:46:44.660Z,8.87
2018-06-28T08:49:49.333Z,7.60
2018-06-28T08:52:53.670Z,8.00
2018-06-28T08:55:58.285Z,8.03
2018-06-28T08:59:02.562Z,7.13
2018-06-28T09:02:07.228Z,8.27
2018-06-28T09:05:11.777Z,10.00
2018-06-28T09:08:16.991Z,10.30
2018-06-28T09:11:21.338Z,11.03
2018-06-28T09:14:25.644Z,11.73
2018-06-28T09:17:31.538Z,13.10
2018-06-28T09:20:35.966Z,13.17
2018-06-28T09:23:40.402Z,12.80
2018-06-28T09:26:44.741Z,13.07
2018-06-28T09:29:49.094Z,14.13
2018-06-28T09:32:53.926Z,15.17
2018-06-28T09:35:58.495Z,13.87
2018-06-28T09:39:03.206Z,15.00
2018-06-28T09:42:08.265Z,13.67
2018-06-28T09:45:12.541Z,15.20
2018-06-28T09:48:18.058Z,14.78
2018-06-28T09:51:22.619Z,13.70
2018-06-28T09:54:26.926Z,15.15
2018-06-28T09:57:31.098Z,13.50
2018-06-28T10:00:41.517Z,13.85
2018-06-28T10:03:47.454Z,13.97
2018-06-28T10:06:52.025Z,13.60
2018-06-28T10:09:56.390Z,13.80
2018-06-28T10:13:00.837Z,14.47
2018-06-28T10:16:05.825Z,14.30
2018-06-28T10:19:10.257Z,13.87
2018-06-28T10:22:14.534Z,14.63
2018-06-28T10:25:18.858Z,14.47
2018-06-28T10:28:24.182Z,13.73
2018-06-28T10:31:28.488Z,13.70
2018-06-28T10:34:32.815Z,12.57
2018-06-28T10:37:37.138Z,11.87
2018-06-28T10:40:41.544Z,12.67
2018-06-28T10:43:45.824Z,14.00
2018-06-28T10:46:50.205Z,12.77
2018-06-28T10:49:54.733Z,13.87
2018-06-28T10:52:59.293Z,14.83
2018-06-28T10:56:04.698Z,12.97
2018-06-28T10:59:09.181Z,11.45
2018-06-28T11:02:13.558Z,13.73
2018-06-28T11:05:18.032Z,14.47
2018-06-28T11:08:22.592Z,14.13
2018-06-28T11:11:27.782Z,14.53
2018-06-28T11:14:33.262Z,12.87
2018-06-28T11:17:38.012Z,13.70
2018-06-28T11:20:42.311Z,13.13
2018-06-28T11:23:46.724Z,12.40
2018-06-28T11:26:51.261Z,13.60
2018-06-28T11:29:55.838Z,14.10
2018-06-28T11:33:00.590Z,12.23
2018-06-28T11:36:05.007Z,14.40
2018-06-28T11:39:11.860Z,12.77
2018-06-28T11:42:16.225Z,14.20
2018-06-28T11:45:20.930Z,11.97
2018-06-28T11:48:28.541Z,13.00
2018-06-28T11:51:33.467Z,14.40
2018-06-28T11:54:37.832Z,14.70
2018-06-28T11:57:43.805Z,14.30
2018-06-28T12:00:48.250Z,15.60
2018-06-28T12:03:53.138Z,16.67
2018-06-28T12:06:58.268Z,15.63
2018-06-28T12:10:02.394Z,16.00
2018-06-28T12:13:06.896Z,14.77
2018-06-28T12:16:11.296Z,17.03
2018-06-28T12:19:15.603Z,17.57
2018-06-28T12:22:19.981Z,15.87
2018-06-28T12:25:24.467Z,17.13
2018-06-28T12:28:28.819Z,17.63
2018-06-28T12:31:33.215Z,18.10
2018-06-28T12:34:37.645Z,19.40
2018-06-28T12:37:42.060Z,18.53
2018-06-28T12:40:46.818Z,18.47
2018-06-28T12:43:51.959Z,18.00
2018-06-28T12:49:05.967Z,18.93
2018-06-28T12:52:27.410Z,18.37
2018-06-28T12:56:50.015Z,19.07
2018-06-28T12:59:54.935Z,17.67
2018-06-28T13:02:59.225Z,15.87
2018-06-28T13:06:03.615Z,17.37
2018-06-28T13:09:14.046Z,18.07
2018-06-28T13:12:18.435Z,18.87
2018-06-28T13:15:22.922Z,19.13
2018-06-28T13:18:27.214Z,19.90
2018-06-28T13:21:31.556Z,21.03
2018-06-28T13:24:37.259Z,23.07
2018-06-28T13:27:41.718Z,23.20
2018-06-28T13:30:49.211Z,22.90
2018-06-28T13:33:54.353Z,22.87
2018-06-28T13:36:58.646Z,22.07
2018-06-28T13:40:02.989Z,20.30
2018-06-28T13:43:07.360Z,19.73
2018-06-28T13:46:11.687Z,20.57
2018-06-28T13:49:16.181Z,20.17
2018-06-28T13:52:20.525Z,20.80
2018-06-28T13:55:25.002Z,20.30
2018-06-28T13:58:31.468Z,18.20
2018-06-28T14:01:37.155Z,19.83
2018-06-28T14:04:44.057Z,19.37
2018-06-28T14:07:50.863Z,18.63
2018-06-28T14:10:55.349Z,19.27
2018-06-28T14:13:59.655Z,19.20
2018-06-28T14:17:04.221Z,18.43
2018-06-28T14:20:09.942Z,19.27
2018-06-28T14:23:14.460Z,19.50
2018-06-28T14:26:18.858Z,18.70
2018-06-28T14:29:23.466Z,18.20
2018-06-28T14:32:28.089Z,17.83
2018-06-28T14:35:32.941Z,18.93
2018-06-28T14:38:37.377Z,18.10
2018-06-28T14:41:42.542Z,17.90
2018-06-28T14:44:48.643Z,17.33
2018-06-28T14:47:53.677Z,18.00
2018-06-28T14:50:58.466Z,16.07
2018-06-28T14:54:02.920Z,16.30
2018-06-28T14:57:07.669Z,13.77
2018-06-28T15:00:12.207Z,12.37
2018-06-28T15:03:17.412Z,8.87
2018-06-28T15:06:22.319Z,9.00
2018-06-28T15:09:27.270Z,9.93
2018-06-28T15:12:31.735Z,10.37
2018-06-28T15:15:36.136Z,10.23
2018-06-28T15:18:40.356Z,11.97
2018-06-28T15:21:44.901Z,12.13
2018-06-28T15:24:49.877Z,12.10
2018-06-28T15:27:54.308Z,13.00
2018-06-28T15:30:58.672Z,12.73
2018-06-28T15:34:02.993Z,10.10
2018-06-28T15:37:07.702Z,10.53
2018-06-28T15:40:12.129Z,11.43
2018-06-28T15:43:16.451Z,10.50
2018-06-28T15:46:21.411Z,11.30
2018-06-28T15:49:25.800Z,11.33
2018-06-28T15:52:30.880Z,11.83
2018-06-28T15:55:35.198Z,10.00
2018-06-28T15:58:39.581Z,10.23
2018-06-28T16:01:44.077Z,10.80
2018-06-28T16:04:48.485Z,9.43
2018-06-28T16:07:52.817Z,8.60
2018-06-28T16:10:57.532Z,8.63
2018-06-28T16:14:02.042Z,10.03
2018-06-28T16:17:06.684Z,9.33
2018-06-28T16:20:11.826Z,9.77
2018-06-28T16:23:16.252Z,9.40
2018-06-28T16:26:20.745Z,9.07
2018-06-28T16:29:25.197Z,9.40
2018-06-28T16:32:29.570Z,9.07
2018-06-28T16:35:37.738Z,9.10
2018-06-28T16:38:43.661Z,9.35
2018-06-28T16:41:48.036Z,8.97
2018-06-28T16:44:53.732Z,8.73
2018-06-28T16:47:58.427Z,8.38
2018-06-28T16:51:02.835Z,8.53
2018-06-28T16:54:07.151Z,8.20
2018-06-28T16:57:11.586Z,8.63
2018-06-28T17:00:16.298Z,8.90
2018-06-28T17:03:21.105Z,9.97
2018-06-28T17:06:25.509Z,9.67
2018-06-28T17:09:30.313Z,8.97
2018-06-28T17:12:35.035Z,9.83
2018-06-28T17:15:39.435Z,11.00
2018-06-28T17:18:44.502Z,11.08
2018-06-28T17:21:49.605Z,9.87
2018-06-28T17:24:53.946Z,9.87
2018-06-28T17:27:58.305Z,9.57
2018-06-28T17:31:03.462Z,10.40
2018-06-28T17:34:07.877Z,9.60
2018-06-28T17:37:12.335Z,9.90
2018-06-28T17:40:16.785Z,8.87
2018-06-28T17:43:21.121Z,8.53
2018-06-28T17:46:25.786Z,10.23
2018-06-28T17:49:30.138Z,9.50
2018-06-28T17:52:34.482Z,9.40
2018-06-28T17:55:39.105Z,9.43
2018-06-28T17:58:43.302Z,8.53
2018-06-28T18:01:48.392Z,9.17
2018-06-28T18:04:52.795Z,7.63
2018-06-28T18:07:57.201Z,8.75
2018-06-28T18:11:01.706Z,9.37
2018-06-28T18:14:06.267Z,8.43
2018-06-28T18:17:10.661Z,8.40
2018-06-28T18:20:15.220Z,8.20
2018-06-28T18:23:19.538Z,8.30
2018-06-28T18:26:23.902Z,8.07
2018-06-28T18:29:28.614Z,7.83
2018-06-28T18:32:35.704Z,8.00
2018-06-28T18:35:41.361Z,8.47
2018-06-28T18:38:45.803Z,8.47
2018-06-28T18:41:50.548Z,7.37
2018-06-28T18:44:55.229Z,9.17
2018-06-28T18:48:00.026Z,8.73
2018-06-28T18:51:04.576Z,8.13
2018-06-28T18:54:09.265Z,8.20
2018-06-28T18:57:15.207Z,8.30
2018-06-28T19:00:19.952Z,9.07
2018-06-28T19:03:24.787Z,9.18
2018-06-28T19:06:29.448Z,8.80
2018-06-28T19:09:39.120Z,8.13
2018-06-28T19:12:43.684Z,8.33
2018-06-28T19:15:53.320Z,8.47
2018-06-28T19:18:57.825Z,8.93
2018-06-28T19:22:07.654Z,8.43
2018-06-28T19:25:12.233Z,8.90
2018-06-28T19:28:16.728Z,8.90
2018-06-28T19:31:27.188Z,9.53
2018-06-28T19:34:32.141Z,9.53
2018-06-28T19:37:41.858Z,9.37
2018-06-28T19:40:51.789Z,9.07
2018-06-28T19:43:56.196Z,10.13
2018-06-28T19:47:00.655Z,9.03
2018-06-28T19:50:10.450Z,9.53
2018-06-28T19:53:16.275Z,9.33
2018-06-28T19:56:20.657Z,9.67
2018-06-28T19:59:25.152Z,9.77
2018-06-28T20:02:34.729Z,9.50
2018-06-28T20:05:40.005Z,10.10
2018-06-28T20:08:44.459Z,10.07
2018-06-28T20:11:48.786Z,10.23
2018-06-28T20:14:58.676Z,10.40
2018-06-28T20:18:08.185Z,10.37
2018-06-28T20:21:12.699Z,10.73
2018-06-28T20:24:16.944Z,11.47
2018-06-28T20:27:26.655Z,11.57
2018-06-28T20:30:37.230Z,10.43
2018-06-28T20:33:47.505Z,11.30
2018-06-28T20:36:52.134Z,11.67
2018-06-28T20:39:56.905Z,12.33
2018-06-28T20:43:01.465Z,12.28
2018-06-28T20:46:06.989Z,12.97
2018-06-28T20:49:11.637Z,12.65
2018-06-28T20:52:15.816Z,13.23
2018-06-28T20:55:20.311Z,13.33
2018-06-28T20:58:24.721Z,12.33
2018-06-28T21:01:29.029Z,12.50
2018-06-28T21:04:33.654Z,12.98
2018-06-28T21:07:38.109Z,12.00
2018-06-28T21:10:42.688Z,12.73
2018-06-28T21:13:47.058Z,12.73
2018-06-28T21:16:51.967Z,11.53
2018-06-28T21:19:56.275Z,12.00
2018-06-28T21:23:00.901Z,13.30
2018-06-28T21:26:06.605Z,10.60
2018-06-28T21:29:11.008Z,10.43
2018-06-28T21:32:15.360Z,11.00
2018-06-28T21:35:19.683Z,10.83
2018-06-28T21:38:24.014Z,10.83
2018-06-28T21:41:28.466Z,11.77
2018-06-28T21:44:33.036Z,11.13
2018-06-28T21:47:37.861Z,11.07
2018-06-28T21:50:41.978Z,11.10
2018-06-28T21:53:46.294Z,10.53
2018-06-28T21:56:50.830Z,10.40
2018-06-28T21:59:55.132Z,11.40
2018-06-28T22:03:00.432Z,10.10
2018-06-28T22:06:04.734Z,11.67
2018-06-28T22:09:09.054Z,11.07
2018-06-28T22:12:13.345Z,10.83
2018-06-28T22:15:22.201Z,10.77
2018-06-28T22:18:26.564Z,10.27
2018-06-28T22:21:30.858Z,11.30
2018-06-28T22:24:35.202Z,10.10
2018-06-28T22:27:40.362Z,10.93
2018-06-28T22:30:44.672Z,11.17
2018-06-28T22:33:48.971Z,11.63
2018-06-28T22:36:53.303Z,11.00
2018-06-28T22:39:57.597Z,12.17
2018-06-28T22:43:02.434Z,13.57
2018-06-28T22:46:06.760Z,13.80
2018-06-28T22:49:11.117Z,12.50
2018-06-28T22:52:15.682Z,11.50
2018-06-28T22:55:19.985Z,10.40
2018-06-28T22:58:24.914Z,12.47
2018-06-28T23:01:29.084Z,11.00
2018-06-28T23:04:33.535Z,11.20
2018-06-28T23:07:37.831Z,11.17
2018-06-28T23:10:42.130Z,11.47
2018-06-28T23:13:46.447Z,10.93
2018-06-28T23:16:50.780Z,10.07
2018-06-28T23:19:55.276Z,11.23
2018-06-28T23:22:59.793Z,10.60
2018-06-28T23:26:04.142Z,10.90
2018-06-28T23:29:08.428Z,11.17
2018-06-28T23:32:13.016Z,10.03
2018-06-28T23:35:17.353Z,10.50
2018-06-28T23:38:21.645Z,11.77
2018-06-28T23:41:26.562Z,10.50
2018-06-28T23:44:30.839Z,11.70
2018-06-28T23:47:35.178Z,11.77
2018-06-28T23:50:39.627Z,12.10
2018-06-28T23:53:43.978Z,12.30
2018-06-28T23:56:48.416Z,15.47
2018-06-28T23:59:52.722Z,15.03
